sensor_id;sensor_type;location;lat;lon;timestamp;temperature;humidity
1129;DHT22;553;51.038;7.216;2024-03-07T00:00:51;6.20;99.90
1129;DHT22;553;51.038;7.216;2024-03-07T00:03:21;6.10;99.90
1129;DHT22;553;51.038;7.216;2024-03-07T00:05:47;6.10;99.90
1129;DHT22;553;51.038;7.216;2024-03-07T00:08:14;6.10;99.90
1129;DHT22;553;51.038;7.216;2024-03-07T00:10:42;6.10;99.90
1129;DHT22;553;51.038;7.216;2024-03-07T00:13:10;6.10;99.90
1129;DHT22;553;51.038;7.216;2024-03-07T00:15:39;6.10;99.90
1129;DHT22;553;51.038;7.216;2024-03-07T00:18:08;6.00;99.90
1129;DHT22;553;51.038;7.216;2024-03-07T00:20:37;6.00;99.90
1129;DHT22;553;51.038;7.216;2024-03-07T00:23:04;6.00;99.90
1129;DHT22;553;51.038;7.216;2024-03-07T00:25:31;6.00;99.90
1129;DHT22;553;51.038;7.216;2024-03-07T00:27:58;5.90;99.90
1129;DHT22;553;51.038;7.216;2024-03-07T00:30:29;5.80;99.90
1129;DHT22;553;51.038;7.216;2024-03-07T00:32:57;5.80;99.90
1129;DHT22;553;51.038;7.216;2024-03-07T00:35:24;5.80;99.90
1129;DHT22;553;51.038;7.216;2024-03-07T00:37:51;5.70;99.90
1129;DHT22;553;51.038;7.216;2024-03-07T00:40:18;5.70;99.90
1129;DHT22;553;51.038;7.216;2024-03-07T00:42:45;5.60;99.90
1129;DHT22;553;51.038;7.216;2024-03-07T00:45:12;5.70;99.90
1129;DHT22;553;51.038;7.216;2024-03-07T00:47:39;5.70;99.90
1129;DHT22;553;51.038;7.216;2024-03-07T00:50:06;5.60;99.90
1129;DHT22;553;51.038;7.216;2024-03-07T00:52:35;5.70;99.90
1129;DHT22;553;51.038;7.216;2024-03-07T00:55:02;5.60;99.90
1129;DHT22;553;51.038;7.216;2024-03-07T00:57:29;5.60;99.90
1129;DHT22;553;51.038;7.216;2024-03-07T00:59:56;5.50;99.90
1129;DHT22;553;51.038;7.216;2024-03-07T01:02:23;5.40;99.90
1129;DHT22;553;51.038;7.216;2024-03-07T01:04:50;5.40;99.90
1129;DHT22;553;51.038;7.216;2024-03-07T01:07:16;5.40;99.90
1129;DHT22;553;51.038;7.216;2024-03-07T01:09:43;5.50;99.90
1129;DHT22;553;51.038;7.216;2024-03-07T01:12:10;5.50;99.90
1129;DHT22;553;51.038;7.216;2024-03-07T01:14:37;5.50;99.90
1129;DHT22;553;51.038;7.216;2024-03-07T01:17:05;5.40;99.90
1129;DHT22;553;51.038;7.216;2024-03-07T01:19:34;5.40;99.90
1129;DHT22;553;51.038;7.216;2024-03-07T01:22:01;5.30;99.90
1129;DHT22;553;51.038;7.216;2024-03-07T01:24:28;5.40;99.90
1129;DHT22;553;51.038;7.216;2024-03-07T01:26:55;5.30;99.90
1129;DHT22;553;51.038;7.216;2024-03-07T01:29:22;5.40;99.90
1129;DHT22;553;51.038;7.216;2024-03-07T01:31:49;5.30;99.90
1129;DHT22;553;51.038;7.216;2024-03-07T01:34:16;5.20;99.90
1129;DHT22;553;51.038;7.216;2024-03-07T01:36:43;5.20;99.90
1129;DHT22;553;51.038;7.216;2024-03-07T01:39:11;5.20;99.90
1129;DHT22;553;51.038;7.216;2024-03-07T01:41:37;5.10;99.90
1129;DHT22;553;51.038;7.216;2024-03-07T01:44:05;5.20;99.90
1129;DHT22;553;51.038;7.216;2024-03-07T01:46:32;5.20;99.90
1129;DHT22;553;51.038;7.216;2024-03-07T01:48:59;5.10;99.90
1129;DHT22;553;51.038;7.216;2024-03-07T01:51:27;5.20;99.90
1129;DHT22;553;51.038;7.216;2024-03-07T01:53:54;5.20;99.90
1129;DHT22;553;51.038;7.216;2024-03-07T01:56:21;5.20;99.90
1129;DHT22;553;51.038;7.216;2024-03-07T01:58:49;5.10;99.90
1129;DHT22;553;51.038;7.216;2024-03-07T02:01:18;5.10;99.90
1129;DHT22;553;51.038;7.216;2024-03-07T02:03:45;5.10;99.90
1129;DHT22;553;51.038;7.216;2024-03-07T02:06:12;5.10;99.90
1129;DHT22;553;51.038;7.216;2024-03-07T02:08:39;5.10;99.90
1129;DHT22;553;51.038;7.216;2024-03-07T02:11:06;5.10;99.90
1129;DHT22;553;51.038;7.216;2024-03-07T02:13:33;5.00;99.90
1129;DHT22;553;51.038;7.216;2024-03-07T02:16:01;4.90;99.90
1129;DHT22;553;51.038;7.216;2024-03-07T02:18:47;4.90;99.90
1129;DHT22;553;51.038;7.216;2024-03-07T02:21:23;4.80;99.90
1129;DHT22;553;51.038;7.216;2024-03-07T02:23:50;4.80;99.90
1129;DHT22;553;51.038;7.216;2024-03-07T02:26:18;4.80;99.90
1129;DHT22;553;51.038;7.216;2024-03-07T02:28:45;4.70;99.90
1129;DHT22;553;51.038;7.216;2024-03-07T02:31:11;4.70;99.90
1129;DHT22;553;51.038;7.216;2024-03-07T02:33:38;4.80;99.90
1129;DHT22;553;51.038;7.216;2024-03-07T02:36:06;4.90;99.90
1129;DHT22;553;51.038;7.216;2024-03-07T02:38:33;4.80;99.90
1129;DHT22;553;51.038;7.216;2024-03-07T02:41:01;4.80;99.90
1129;DHT22;553;51.038;7.216;2024-03-07T02:43:27;4.70;99.90
1129;DHT22;553;51.038;7.216;2024-03-07T02:45:54;4.70;99.90
1129;DHT22;553;51.038;7.216;2024-03-07T02:48:21;4.60;99.90
1129;DHT22;553;51.038;7.216;2024-03-07T02:50:48;4.60;99.90
1129;DHT22;553;51.038;7.216;2024-03-07T02:53:14;4.60;99.90
1129;DHT22;553;51.038;7.216;2024-03-07T02:55:41;4.50;99.90
1129;DHT22;553;51.038;7.216;2024-03-07T02:58:08;4.50;99.90
1129;DHT22;553;51.038;7.216;2024-03-07T03:00:35;4.50;99.90
1129;DHT22;553;51.038;7.216;2024-03-07T03:03:02;4.40;99.90
1129;DHT22;553;51.038;7.216;2024-03-07T03:05:29;4.40;99.90
1129;DHT22;553;51.038;7.216;2024-03-07T03:07:57;4.50;99.90
1129;DHT22;553;51.038;7.216;2024-03-07T03:10:25;4.40;99.90
1129;DHT22;553;51.038;7.216;2024-03-07T03:12:54;4.40;99.90
1129;DHT22;553;51.038;7.216;2024-03-07T03:15:22;4.30;99.90
1129;DHT22;553;51.038;7.216;2024-03-07T03:17:49;4.30;99.90
1129;DHT22;553;51.038;7.216;2024-03-07T03:20:16;4.30;99.90
1129;DHT22;553;51.038;7.216;2024-03-07T03:22:52;4.30;99.90
1129;DHT22;553;51.038;7.216;2024-03-07T03:25:40;4.40;99.90
1129;DHT22;553;51.038;7.216;2024-03-07T03:28:08;4.30;99.90
1129;DHT22;553;51.038;7.216;2024-03-07T03:30:39;4.30;99.90
1129;DHT22;553;51.038;7.216;2024-03-07T03:33:07;4.30;99.90
1129;DHT22;553;51.038;7.216;2024-03-07T03:35:34;4.30;99.90
1129;DHT22;553;51.038;7.216;2024-03-07T03:38:01;4.20;99.90
1129;DHT22;553;51.038;7.216;2024-03-07T03:40:28;4.30;99.90
1129;DHT22;553;51.038;7.216;2024-03-07T03:42:55;4.10;99.90
1129;DHT22;553;51.038;7.216;2024-03-07T03:45:22;4.10;99.90
1129;DHT22;553;51.038;7.216;2024-03-07T03:47:48;4.10;99.90
1129;DHT22;553;51.038;7.216;2024-03-07T03:50:16;4.10;99.90
1129;DHT22;553;51.038;7.216;2024-03-07T03:52:43;4.10;99.90
1129;DHT22;553;51.038;7.216;2024-03-07T03:55:11;4.10;99.90
1129;DHT22;553;51.038;7.216;2024-03-07T03:57:39;4.10;99.90
1129;DHT22;553;51.038;7.216;2024-03-07T04:00:07;4.10;99.90
1129;DHT22;553;51.038;7.216;2024-03-07T04:02:45;4.00;99.90
1129;DHT22;553;51.038;7.216;2024-03-07T04:05:18;4.00;99.90
1129;DHT22;553;51.038;7.216;2024-03-07T04:07:46;3.90;99.90
1129;DHT22;553;51.038;7.216;2024-03-07T04:10:14;3.90;99.90
1129;DHT22;553;51.038;7.216;2024-03-07T04:12:41;3.90;99.90
1129;DHT22;553;51.038;7.216;2024-03-07T04:15:12;3.90;99.90
1129;DHT22;553;51.038;7.216;2024-03-07T04:17:40;3.90;99.90
1129;DHT22;553;51.038;7.216;2024-03-07T04:20:07;3.90;99.90
1129;DHT22;553;51.038;7.216;2024-03-07T04:22:34;3.90;99.90
1129;DHT22;553;51.038;7.216;2024-03-07T04:25:02;3.90;99.90
1129;DHT22;553;51.038;7.216;2024-03-07T04:27:29;3.90;99.90
1129;DHT22;553;51.038;7.216;2024-03-07T04:29:57;3.90;99.90
1129;DHT22;553;51.038;7.216;2024-03-07T04:32:23;3.90;99.90
1129;DHT22;553;51.038;7.216;2024-03-07T04:34:50;3.80;99.90
1129;DHT22;553;51.038;7.216;2024-03-07T04:37:17;3.80;99.90
1129;DHT22;553;51.038;7.216;2024-03-07T04:39:43;3.80;99.90
1129;DHT22;553;51.038;7.216;2024-03-07T04:42:10;3.80;99.90
1129;DHT22;553;51.038;7.216;2024-03-07T04:44:37;3.70;99.90
1129;DHT22;553;51.038;7.216;2024-03-07T04:47:04;3.70;99.90
1129;DHT22;553;51.038;7.216;2024-03-07T04:49:32;3.70;99.90
1129;DHT22;553;51.038;7.216;2024-03-07T04:52:01;3.70;99.90
1129;DHT22;553;51.038;7.216;2024-03-07T04:54:29;3.70;99.90
1129;DHT22;553;51.038;7.216;2024-03-07T04:56:56;3.70;99.90
1129;DHT22;553;51.038;7.216;2024-03-07T04:59:23;3.70;99.90
1129;DHT22;553;51.038;7.216;2024-03-07T05:01:50;3.80;99.90
1129;DHT22;553;51.038;7.216;2024-03-07T05:04:18;3.70;99.90
1129;DHT22;553;51.038;7.216;2024-03-07T05:06:45;3.70;99.90
1129;DHT22;553;51.038;7.216;2024-03-07T05:09:15;3.70;99.90
1129;DHT22;553;51.038;7.216;2024-03-07T05:11:53;3.70;99.90
1129;DHT22;553;51.038;7.216;2024-03-07T05:14:21;3.70;99.90
1129;DHT22;553;51.038;7.216;2024-03-07T05:16:52;3.60;99.90
1129;DHT22;553;51.038;7.216;2024-03-07T05:19:35;3.60;99.90
1129;DHT22;553;51.038;7.216;2024-03-07T05:22:02;3.50;99.90
1129;DHT22;553;51.038;7.216;2024-03-07T05:24:32;3.50;99.90
1129;DHT22;553;51.038;7.216;2024-03-07T05:27:01;3.50;99.90
1129;DHT22;553;51.038;7.216;2024-03-07T05:29:28;3.60;99.90
1129;DHT22;553;51.038;7.216;2024-03-07T05:31:55;3.60;99.90
1129;DHT22;553;51.038;7.216;2024-03-07T05:34:22;3.60;99.90
1129;DHT22;553;51.038;7.216;2024-03-07T05:36:50;3.60;99.90
1129;DHT22;553;51.038;7.216;2024-03-07T05:39:17;3.50;99.90
1129;DHT22;553;51.038;7.216;2024-03-07T05:41:45;3.60;99.90
1129;DHT22;553;51.038;7.216;2024-03-07T05:44:13;3.60;99.90
1129;DHT22;553;51.038;7.216;2024-03-07T05:46:41;3.60;99.90
1129;DHT22;553;51.038;7.216;2024-03-07T05:49:08;3.60;99.90
1129;DHT22;553;51.038;7.216;2024-03-07T05:51:35;3.60;99.90
1129;DHT22;553;51.038;7.216;2024-03-07T05:54:02;3.60;99.90
1129;DHT22;553;51.038;7.216;2024-03-07T05:56:33;3.60;99.90
1129;DHT22;553;51.038;7.216;2024-03-07T05:59:03;3.60;99.90
1129;DHT22;553;51.038;7.216;2024-03-07T06:01:39;3.50;99.90
1129;DHT22;553;51.038;7.216;2024-03-07T06:04:07;3.40;99.90
1129;DHT22;553;51.038;7.216;2024-03-07T06:06:36;3.50;99.90
1129;DHT22;553;51.038;7.216;2024-03-07T06:09:05;3.40;99.90
1129;DHT22;553;51.038;7.216;2024-03-07T06:11:38;3.40;99.90
1129;DHT22;553;51.038;7.216;2024-03-07T06:14:06;3.40;99.90
1129;DHT22;553;51.038;7.216;2024-03-07T06:16:37;3.30;99.90
1129;DHT22;553;51.038;7.216;2024-03-07T06:19:06;3.40;99.90
1129;DHT22;553;51.038;7.216;2024-03-07T06:21:38;3.40;99.90
1129;DHT22;553;51.038;7.216;2024-03-07T06:24:09;3.40;99.90
1129;DHT22;553;51.038;7.216;2024-03-07T06:26:38;3.50;99.90
1129;DHT22;553;51.038;7.216;2024-03-07T06:29:17;3.50;99.90
1129;DHT22;553;51.038;7.216;2024-03-07T06:31:45;3.40;99.90
1129;DHT22;553;51.038;7.216;2024-03-07T06:34:16;3.50;99.90
1129;DHT22;553;51.038;7.216;2024-03-07T06:36:44;3.40;99.90
1129;DHT22;553;51.038;7.216;2024-03-07T06:39:11;3.60;99.90
1129;DHT22;553;51.038;7.216;2024-03-07T06:41:39;3.60;99.90
1129;DHT22;553;51.038;7.216;2024-03-07T06:44:06;3.60;99.90
1129;DHT22;553;51.038;7.216;2024-03-07T06:46:34;3.70;99.90
1129;DHT22;553;51.038;7.216;2024-03-07T06:49:01;3.70;99.90
1129;DHT22;553;51.038;7.216;2024-03-07T06:51:28;3.70;99.90
1129;DHT22;553;51.038;7.216;2024-03-07T06:53:55;3.70;99.90
1129;DHT22;553;51.038;7.216;2024-03-07T06:56:23;3.80;99.90
1129;DHT22;553;51.038;7.216;2024-03-07T06:58:51;3.90;99.90
1129;DHT22;553;51.038;7.216;2024-03-07T07:01:18;4.00;99.90
1129;DHT22;553;51.038;7.216;2024-03-07T07:03:46;4.00;99.90
1129;DHT22;553;51.038;7.216;2024-03-07T07:06:15;4.10;99.90
1129;DHT22;553;51.038;7.216;2024-03-07T07:08:43;4.10;99.90
1129;DHT22;553;51.038;7.216;2024-03-07T07:11:11;4.20;99.90
1129;DHT22;553;51.038;7.216;2024-03-07T07:13:39;4.20;99.90
1129;DHT22;553;51.038;7.216;2024-03-07T07:16:06;4.30;99.90
1129;DHT22;553;51.038;7.216;2024-03-07T07:18:33;4.30;99.90
1129;DHT22;553;51.038;7.216;2024-03-07T07:21:02;4.40;99.90
1129;DHT22;553;51.038;7.216;2024-03-07T07:23:30;4.50;99.90
1129;DHT22;553;51.038;7.216;2024-03-07T07:25:57;4.50;99.90
1129;DHT22;553;51.038;7.216;2024-03-07T07:28:24;4.50;99.90
1129;DHT22;553;51.038;7.216;2024-03-07T07:30:51;4.60;99.90
1129;DHT22;553;51.038;7.216;2024-03-07T07:33:19;4.60;99.90
1129;DHT22;553;51.038;7.216;2024-03-07T07:35:46;4.60;99.90
1129;DHT22;553;51.038;7.216;2024-03-07T07:38:13;4.70;99.90
1129;DHT22;553;51.038;7.216;2024-03-07T07:40:42;4.80;99.90
1129;DHT22;553;51.038;7.216;2024-03-07T07:43:09;4.90;99.90
1129;DHT22;553;51.038;7.216;2024-03-07T07:45:42;4.90;99.90
1129;DHT22;553;51.038;7.216;2024-03-07T07:48:09;5.00;99.90
1129;DHT22;553;51.038;7.216;2024-03-07T07:50:38;5.10;99.90
1129;DHT22;553;51.038;7.216;2024-03-07T07:53:05;5.10;99.90
1129;DHT22;553;51.038;7.216;2024-03-07T07:55:35;5.20;99.90
1129;DHT22;553;51.038;7.216;2024-03-07T07:58:02;5.30;99.90
1129;DHT22;553;51.038;7.216;2024-03-07T08:00:32;5.30;99.90
1129;DHT22;553;51.038;7.216;2024-03-07T08:03:00;5.40;99.90
1129;DHT22;553;51.038;7.216;2024-03-07T08:05:32;5.40;99.90
1129;DHT22;553;51.038;7.216;2024-03-07T08:08:02;5.50;99.90
1129;DHT22;553;51.038;7.216;2024-03-07T08:10:31;5.50;99.90
1129;DHT22;553;51.038;7.216;2024-03-07T08:12:59;5.60;99.90
1129;DHT22;553;51.038;7.216;2024-03-07T08:15:28;5.70;99.90
1129;DHT22;553;51.038;7.216;2024-03-07T08:17:56;5.80;99.90
1129;DHT22;553;51.038;7.216;2024-03-07T08:20:24;5.80;99.90
1129;DHT22;553;51.038;7.216;2024-03-07T08:22:54;5.90;99.90
1129;DHT22;553;51.038;7.216;2024-03-07T08:25:24;5.90;99.90
1129;DHT22;553;51.038;7.216;2024-03-07T08:27:53;6.10;99.90
1129;DHT22;553;51.038;7.216;2024-03-07T08:30:21;6.30;99.90
1129;DHT22;553;51.038;7.216;2024-03-07T08:32:52;6.70;99.90
1129;DHT22;553;51.038;7.216;2024-03-07T08:35:20;7.00;99.50
1129;DHT22;553;51.038;7.216;2024-03-07T08:37:49;7.20;97.50
1129;DHT22;553;51.038;7.216;2024-03-07T08:40:20;7.30;96.60
1129;DHT22;553;51.038;7.216;2024-03-07T08:42:53;7.40;97.30
1129;DHT22;553;51.038;7.216;2024-03-07T08:45:25;7.70;97.30
1129;DHT22;553;51.038;7.216;2024-03-07T08:47:53;8.00;95.60
1129;DHT22;553;51.038;7.216;2024-03-07T08:50:26;8.20;93.90
1129;DHT22;553;51.038;7.216;2024-03-07T08:52:54;8.40;93.60
1129;DHT22;553;51.038;7.216;2024-03-07T08:55:23;8.60;93.00
1129;DHT22;553;51.038;7.216;2024-03-07T08:57:51;8.80;92.90
1129;DHT22;553;51.038;7.216;2024-03-07T09:00:18;8.90;92.70
1129;DHT22;553;51.038;7.216;2024-03-07T09:02:58;9.10;92.00
1129;DHT22;553;51.038;7.216;2024-03-07T09:05:29;9.00;92.00
1129;DHT22;553;51.038;7.216;2024-03-07T09:07:57;9.10;91.50
1129;DHT22;553;51.038;7.216;2024-03-07T09:10:24;9.20;91.20
1129;DHT22;553;51.038;7.216;2024-03-07T09:12:53;9.20;91.30
1129;DHT22;553;51.038;7.216;2024-03-07T09:15:21;9.50;92.00
1129;DHT22;553;51.038;7.216;2024-03-07T09:17:51;9.50;91.10
1129;DHT22;553;51.038;7.216;2024-03-07T09:20:20;9.70;91.20
1129;DHT22;553;51.038;7.216;2024-03-07T09:22:47;9.50;91.20
1129;DHT22;553;51.038;7.216;2024-03-07T09:25:16;9.60;91.70
1129;DHT22;553;51.038;7.216;2024-03-07T09:27:44;9.30;91.30
1129;DHT22;553;51.038;7.216;2024-03-07T09:30:11;9.20;92.70
1129;DHT22;553;51.038;7.216;2024-03-07T09:32:42;9.10;91.70
1129;DHT22;553;51.038;7.216;2024-03-07T09:35:10;8.90;91.70
1129;DHT22;553;51.038;7.216;2024-03-07T09:37:43;8.90;92.70
1129;DHT22;553;51.038;7.216;2024-03-07T09:40:11;9.00;92.10
1129;DHT22;553;51.038;7.216;2024-03-07T09:42:43;8.80;92.80
1129;DHT22;553;51.038;7.216;2024-03-07T09:45:18;9.30;93.00
1129;DHT22;553;51.038;7.216;2024-03-07T09:47:48;9.70;92.20
1129;DHT22;553;51.038;7.216;2024-03-07T09:50:17;9.90;91.60
1129;DHT22;553;51.038;7.216;2024-03-07T09:52:52;10.00;90.60
1129;DHT22;553;51.038;7.216;2024-03-07T09:55:21;9.80;91.00
1129;DHT22;553;51.038;7.216;2024-03-07T09:57:50;9.40;91.20
1129;DHT22;553;51.038;7.216;2024-03-07T10:00:18;9.00;92.10
1129;DHT22;553;51.038;7.216;2024-03-07T10:03:08;8.90;93.80
1129;DHT22;553;51.038;7.216;2024-03-07T10:05:37;8.90;94.00
1129;DHT22;553;51.038;7.216;2024-03-07T10:08:05;8.80;93.40
1129;DHT22;553;51.038;7.216;2024-03-07T10:10:33;8.70;94.30
1129;DHT22;553;51.038;7.216;2024-03-07T10:13:00;9.20;93.50
1129;DHT22;553;51.038;7.216;2024-03-07T10:15:29;9.10;93.10
1129;DHT22;553;51.038;7.216;2024-03-07T10:17:55;9.10;93.50
1129;DHT22;553;51.038;7.216;2024-03-07T10:20:23;9.10;92.90
1129;DHT22;553;51.038;7.216;2024-03-07T10:22:51;9.10;92.90
1129;DHT22;553;51.038;7.216;2024-03-07T10:25:18;9.30;93.70
1129;DHT22;553;51.038;7.216;2024-03-07T10:27:46;9.50;92.90
1129;DHT22;553;51.038;7.216;2024-03-07T10:30:16;9.80;92.10
1129;DHT22;553;51.038;7.216;2024-03-07T10:32:57;9.90;91.90
1129;DHT22;553;51.038;7.216;2024-03-07T10:35:27;10.10;92.40
1129;DHT22;553;51.038;7.216;2024-03-07T10:37:56;10.20;90.50
1129;DHT22;553;51.038;7.216;2024-03-07T10:40:27;10.20;90.20
1129;DHT22;553;51.038;7.216;2024-03-07T10:42:57;10.20;90.70
1129;DHT22;553;51.038;7.216;2024-03-07T10:45:28;10.20;90.20
1129;DHT22;553;51.038;7.216;2024-03-07T10:47:57;10.10;90.60
1129;DHT22;553;51.038;7.216;2024-03-07T10:53:42;10.10;91.40
1129;DHT22;553;51.038;7.216;2024-03-07T11:01:53;10.30;90.50
1129;DHT22;553;51.038;7.216;2024-03-07T11:04:23;10.50;90.80
1129;DHT22;553;51.038;7.216;2024-03-07T11:06:52;10.70;90.20
1129;DHT22;553;51.038;7.216;2024-03-07T11:09:21;10.80;90.30
1129;DHT22;553;51.038;7.216;2024-03-07T11:11:51;10.80;89.60
1129;DHT22;553;51.038;7.216;2024-03-07T11:14:18;10.80;90.40
1129;DHT22;553;51.038;7.216;2024-03-07T11:16:46;10.80;89.50
1129;DHT22;553;51.038;7.216;2024-03-07T11:19:31;10.90;89.70
1129;DHT22;553;51.038;7.216;2024-03-07T11:21:58;10.90;88.90
1129;DHT22;553;51.038;7.216;2024-03-07T11:24:30;10.80;89.80
1129;DHT22;553;51.038;7.216;2024-03-07T11:27:04;10.70;90.10
1129;DHT22;553;51.038;7.216;2024-03-07T11:32:14;10.80;89.70
1129;DHT22;553;51.038;7.216;2024-03-07T11:34:43;10.90;89.40
1129;DHT22;553;51.038;7.216;2024-03-07T11:37:20;11.00;89.70
1129;DHT22;553;51.038;7.216;2024-03-07T11:40:03;11.10;88.70
1129;DHT22;553;51.038;7.216;2024-03-07T11:42:35;11.10;89.10
1129;DHT22;553;51.038;7.216;2024-03-07T11:45:03;11.10;88.60
1129;DHT22;553;51.038;7.216;2024-03-07T11:47:37;10.90;88.00
1129;DHT22;553;51.038;7.216;2024-03-07T11:50:08;10.60;88.90
1129;DHT22;553;51.038;7.216;2024-03-07T11:52:38;10.60;89.60
1129;DHT22;553;51.038;7.216;2024-03-07T11:55:08;10.60;88.80
1129;DHT22;553;51.038;7.216;2024-03-07T11:57:35;10.60;88.20
1129;DHT22;553;51.038;7.216;2024-03-07T12:00:03;10.90;89.30
1129;DHT22;553;51.038;7.216;2024-03-07T12:02:39;11.10;87.70
1129;DHT22;553;51.038;7.216;2024-03-07T12:05:07;11.10;87.20
1129;DHT22;553;51.038;7.216;2024-03-07T12:07:35;10.90;87.90
1129;DHT22;553;51.038;7.216;2024-03-07T12:10:02;10.60;87.80
1129;DHT22;553;51.038;7.216;2024-03-07T12:12:32;10.70;88.60
1129;DHT22;553;51.038;7.216;2024-03-07T12:15:01;10.60;88.60
1129;DHT22;553;51.038;7.216;2024-03-07T12:17:35;10.80;88.50
1129;DHT22;553;51.038;7.216;2024-03-07T12:20:03;10.70;87.80
1129;DHT22;553;51.038;7.216;2024-03-07T12:22:51;10.80;88.80
1129;DHT22;553;51.038;7.216;2024-03-07T12:25:23;11.20;88.10
1129;DHT22;553;51.038;7.216;2024-03-07T12:28:08;11.10;86.20
1129;DHT22;553;51.038;7.216;2024-03-07T12:30:58;10.90;87.40
1129;DHT22;553;51.038;7.216;2024-03-07T12:33:29;11.10;87.80
1129;DHT22;553;51.038;7.216;2024-03-07T12:36:02;11.10;88.10
1129;DHT22;553;51.038;7.216;2024-03-07T12:38:37;11.10;87.50
1129;DHT22;553;51.038;7.216;2024-03-07T12:41:09;11.00;87.50
1129;DHT22;553;51.038;7.216;2024-03-07T12:43:44;11.00;87.60
1129;DHT22;553;51.038;7.216;2024-03-07T12:46:15;10.80;87.60
1129;DHT22;553;51.038;7.216;2024-03-07T12:48:43;10.80;87.70
1129;DHT22;553;51.038;7.216;2024-03-07T12:51:14;10.80;88.20
1129;DHT22;553;51.038;7.216;2024-03-07T12:53:46;10.60;87.70
1129;DHT22;553;51.038;7.216;2024-03-07T12:56:13;10.40;88.50
1129;DHT22;553;51.038;7.216;2024-03-07T12:58:46;10.40;88.60
1129;DHT22;553;51.038;7.216;2024-03-07T13:01:14;10.50;89.50
1129;DHT22;553;51.038;7.216;2024-03-07T13:03:41;10.70;91.60
1129;DHT22;553;51.038;7.216;2024-03-07T13:06:11;11.00;88.00
1129;DHT22;553;51.038;7.216;2024-03-07T13:08:38;10.90;87.90
1129;DHT22;553;51.038;7.216;2024-03-07T13:11:07;10.60;88.50
1129;DHT22;553;51.038;7.216;2024-03-07T13:13:36;10.50;89.10
1129;DHT22;553;51.038;7.216;2024-03-07T13:16:03;10.40;89.10
1129;DHT22;553;51.038;7.216;2024-03-07T13:18:31;10.30;89.40
1129;DHT22;553;51.038;7.216;2024-03-07T13:21:01;10.30;89.70
1129;DHT22;553;51.038;7.216;2024-03-07T13:23:30;10.30;91.30
1129;DHT22;553;51.038;7.216;2024-03-07T13:26:02;10.50;90.80
1129;DHT22;553;51.038;7.216;2024-03-07T13:28:34;10.30;89.80
1129;DHT22;553;51.038;7.216;2024-03-07T13:31:02;10.10;89.90
1129;DHT22;553;51.038;7.216;2024-03-07T13:33:30;9.90;90.00
1129;DHT22;553;51.038;7.216;2024-03-07T13:35:57;9.70;90.70
1129;DHT22;553;51.038;7.216;2024-03-07T13:38:24;9.80;90.90
1129;DHT22;553;51.038;7.216;2024-03-07T13:40:52;9.80;90.70
1129;DHT22;553;51.038;7.216;2024-03-07T13:43:20;9.70;91.20
1129;DHT22;553;51.038;7.216;2024-03-07T13:45:46;9.70;91.50
1129;DHT22;553;51.038;7.216;2024-03-07T13:48:15;9.80;91.40
1129;DHT22;553;51.038;7.216;2024-03-07T13:50:44;10.00;90.60
1129;DHT22;553;51.038;7.216;2024-03-07T13:53:24;10.10;89.70
1129;DHT22;553;51.038;7.216;2024-03-07T14:02:13;10.40;88.90
1129;DHT22;553;51.038;7.216;2024-03-07T14:05:11;10.50;88.60
1129;DHT22;553;51.038;7.216;2024-03-07T14:13:39;10.40;87.10
1129;DHT22;553;51.038;7.216;2024-03-07T14:25:49;10.10;89.50
1129;DHT22;553;51.038;7.216;2024-03-07T14:31:12;9.90;88.50
1129;DHT22;553;51.038;7.216;2024-03-07T14:36:38;10.00;88.30
1129;DHT22;553;51.038;7.216;2024-03-07T14:39:07;10.00;88.10
1129;DHT22;553;51.038;7.216;2024-03-07T14:44:16;10.10;88.20
1129;DHT22;553;51.038;7.216;2024-03-07T14:46:43;10.10;88.00
1129;DHT22;553;51.038;7.216;2024-03-07T14:49:16;10.00;88.40
1129;DHT22;553;51.038;7.216;2024-03-07T14:51:44;10.00;88.10
1129;DHT22;553;51.038;7.216;2024-03-07T14:54:26;9.90;87.80
1129;DHT22;553;51.038;7.216;2024-03-07T14:56:53;9.90;87.90
1129;DHT22;553;51.038;7.216;2024-03-07T14:59:22;9.90;88.10
1129;DHT22;553;51.038;7.216;2024-03-07T15:01:49;9.90;88.40
1129;DHT22;553;51.038;7.216;2024-03-07T15:04:17;9.90;88.00
1129;DHT22;553;51.038;7.216;2024-03-07T15:06:44;9.90;88.20
1129;DHT22;553;51.038;7.216;2024-03-07T15:09:12;9.90;88.00
1129;DHT22;553;51.038;7.216;2024-03-07T15:11:40;9.90;88.50
1129;DHT22;553;51.038;7.216;2024-03-07T15:14:07;9.80;88.30
1129;DHT22;553;51.038;7.216;2024-03-07T15:16:39;9.70;88.70
1129;DHT22;553;51.038;7.216;2024-03-07T15:19:07;9.60;89.40
1129;DHT22;553;51.038;7.216;2024-03-07T15:21:37;9.60;89.70
1129;DHT22;553;51.038;7.216;2024-03-07T15:24:05;9.60;89.30
1129;DHT22;553;51.038;7.216;2024-03-07T15:26:32;9.50;89.00
1129;DHT22;553;51.038;7.216;2024-03-07T15:29:00;9.40;89.10
1129;DHT22;553;51.038;7.216;2024-03-07T15:31:28;9.30;89.20
1129;DHT22;553;51.038;7.216;2024-03-07T15:33:55;9.40;89.60
1129;DHT22;553;51.038;7.216;2024-03-07T15:36:23;9.40;90.00
1129;DHT22;553;51.038;7.216;2024-03-07T15:38:50;9.50;90.30
1129;DHT22;553;51.038;7.216;2024-03-07T15:41:17;9.50;88.00
1129;DHT22;553;51.038;7.216;2024-03-07T15:43:45;9.40;87.80
1129;DHT22;553;51.038;7.216;2024-03-07T15:46:12;9.40;88.70
1129;DHT22;553;51.038;7.216;2024-03-07T15:48:44;9.50;88.70
1129;DHT22;553;51.038;7.216;2024-03-07T15:51:11;9.50;88.10
1129;DHT22;553;51.038;7.216;2024-03-07T15:53:39;9.50;87.90
1129;DHT22;553;51.038;7.216;2024-03-07T15:56:08;9.50;88.30
1129;DHT22;553;51.038;7.216;2024-03-07T15:58:35;9.50;87.90
1129;DHT22;553;51.038;7.216;2024-03-07T16:01:02;9.50;87.60
1129;DHT22;553;51.038;7.216;2024-03-07T16:03:29;9.50;87.50
1129;DHT22;553;51.038;7.216;2024-03-07T16:05:56;9.50;87.90
1129;DHT22;553;51.038;7.216;2024-03-07T16:08:23;9.50;87.70
1129;DHT22;553;51.038;7.216;2024-03-07T16:10:51;9.50;87.50
1129;DHT22;553;51.038;7.216;2024-03-07T16:13:19;9.50;86.50
1129;DHT22;553;51.038;7.216;2024-03-07T16:15:46;9.50;87.30
1129;DHT22;553;51.038;7.216;2024-03-07T16:18:14;9.60;87.80
1129;DHT22;553;51.038;7.216;2024-03-07T16:20:43;9.60;86.90
1129;DHT22;553;51.038;7.216;2024-03-07T16:23:13;9.60;87.50
1129;DHT22;553;51.038;7.216;2024-03-07T16:25:42;9.50;87.10
1129;DHT22;553;51.038;7.216;2024-03-07T16:28:09;9.50;87.50
1129;DHT22;553;51.038;7.216;2024-03-07T16:30:39;9.50;87.60
1129;DHT22;553;51.038;7.216;2024-03-07T16:33:12;9.50;87.60
1129;DHT22;553;51.038;7.216;2024-03-07T16:35:41;9.40;87.20
1129;DHT22;553;51.038;7.216;2024-03-07T16:38:09;9.20;87.30
1129;DHT22;553;51.038;7.216;2024-03-07T16:40:36;9.20;88.00
1129;DHT22;553;51.038;7.216;2024-03-07T16:43:10;9.20;87.70
1129;DHT22;553;51.038;7.216;2024-03-07T16:45:40;9.20;88.00
1129;DHT22;553;51.038;7.216;2024-03-07T16:48:07;9.20;88.10
1129;DHT22;553;51.038;7.216;2024-03-07T16:50:38;9.20;87.90
1129;DHT22;553;51.038;7.216;2024-03-07T16:53:10;9.10;87.60
1129;DHT22;553;51.038;7.216;2024-03-07T16:55:37;9.10;88.20
1129;DHT22;553;51.038;7.216;2024-03-07T16:58:05;9.10;88.20
1129;DHT22;553;51.038;7.216;2024-03-07T17:00:38;9.20;87.60
1129;DHT22;553;51.038;7.216;2024-03-07T17:03:11;9.10;87.60
1129;DHT22;553;51.038;7.216;2024-03-07T17:05:41;9.10;87.90
1129;DHT22;553;51.038;7.216;2024-03-07T17:08:11;9.10;88.00
1129;DHT22;553;51.038;7.216;2024-03-07T17:10:41;9.10;87.80
1129;DHT22;553;51.038;7.216;2024-03-07T17:13:10;9.10;87.40
1129;DHT22;553;51.038;7.216;2024-03-07T17:15:38;9.10;87.60
1129;DHT22;553;51.038;7.216;2024-03-07T17:18:06;9.10;88.20
1129;DHT22;553;51.038;7.216;2024-03-07T17:20:35;9.20;87.80
1129;DHT22;553;51.038;7.216;2024-03-07T17:23:02;9.10;87.00
1129;DHT22;553;51.038;7.216;2024-03-07T17:25:33;9.00;87.30